createdAt,value
2022-07-29T00:00:28.052Z,77.95
2022-07-29T00:15:33.682Z,79.81
2022-07-29T00:30:39.169Z,80.96
2022-07-29T00:45:45.121Z,81.74
2022-07-29T01:00:50.737Z,83.72
2022-07-29T01:16:01.636Z,85.67
2022-07-29T01:31:09.692Z,83.97
2022-07-29T01:46:23.785Z,89.44
2022-07-29T02:01:32.288Z,92.92
2022-07-29T02:16:40.542Z,92.56
2022-07-29T02:31:48.481Z,94.36
2022-07-29T02:46:57.278Z,92.67
2022-07-29T03:02:04.180Z,93.53
2022-07-29T03:17:11.780Z,93.97
2022-07-29T03:32:17.376Z,94.36
2022-07-29T03:47:49.616Z,94.06
2022-07-29T04:02:56.739Z,93.62
2022-07-29T04:18:02.476Z,94.65
2022-07-29T04:33:09.507Z,94.50
2022-07-29T04:48:15.080Z,93.53
2022-07-29T05:03:20.756Z,93.52
2022-07-29T05:18:26.409Z,94.59
2022-07-29T05:33:34.943Z,94.91
2022-07-29T05:48:43.064Z,90.78
2022-07-29T06:03:48.786Z,89.01
2022-07-29T06:18:54.577Z,87.77
2022-07-29T06:34:00.104Z,87.41
2022-07-29T06:49:06.485Z,86.20
2022-07-29T07:04:14.724Z,87.97
2022-07-29T07:19:20.752Z,89.82
2022-07-29T07:34:28.345Z,89.37
2022-07-29T07:49:35.370Z,89.47
2022-07-29T08:04:42.138Z,89.87
2022-07-29T08:19:49.548Z,85.96
2022-07-29T08:34:55.052Z,84.49
2022-07-29T08:50:00.494Z,80.12
2022-07-29T09:05:08.250Z,76.31
2022-07-29T09:20:16.259Z,70.74
2022-07-29T09:35:24.247Z,67.31
2022-07-29T09:50:41.120Z,65.77
2022-07-29T10:05:48.267Z,64.50
2022-07-29T10:20:54.213Z,65.11
2022-07-29T10:36:10.035Z,63.15
2022-07-29T10:51:15.773Z,62.17
2022-07-29T11:06:27.057Z,60.65
2022-07-29T11:21:53.978Z,63.53
2022-07-29T11:37:28.001Z,62.32
2022-07-29T11:52:49.818Z,64.54
2022-07-29T12:07:55.775Z,70.04
2022-07-29T12:23:08.494Z,70.42
2022-07-29T12:38:15.378Z,72.60
2022-07-29T12:53:20.982Z,70.04
2022-07-29T13:08:26.510Z,71.07
2022-07-29T13:23:33.637Z,67.57
2022-07-29T13:38:44.792Z,65.62
2022-07-29T13:53:50.273Z,66.94
2022-07-29T14:08:55.884Z,64.50
2022-07-29T14:24:01.457Z,61.92
2022-07-29T14:39:06.998Z,62.24
2022-07-29T14:54:12.511Z,61.89
2022-07-29T15:09:18.111Z,61.76
2022-07-29T15:24:23.585Z,63.08
2022-07-29T15:39:29.136Z,59.60
2022-07-29T15:54:35.216Z,59.46
2022-07-29T16:09:40.630Z,54.97
2022-07-29T16:24:46.134Z,53.47
2022-07-29T16:39:51.701Z,54.30
2022-07-29T16:54:57.231Z,54.66
2022-07-29T17:10:05.291Z,55.36
2022-07-29T17:25:11.976Z,55.94
2022-07-29T17:40:26.834Z,56.41
2022-07-29T17:55:32.298Z,56.29
2022-07-29T18:10:38.246Z,56.18
2022-07-29T18:25:43.788Z,59.09
2022-07-29T18:40:49.357Z,60.82
2022-07-29T18:55:58.616Z,61.61
2022-07-29T19:11:05.856Z,62.57
2022-07-29T19:26:11.337Z,62.72
2022-07-29T19:41:25.957Z,63.34
2022-07-29T19:56:32.165Z,63.25
2022-07-29T20:11:39.851Z,64.91
2022-07-29T20:26:45.414Z,64.79
2022-07-29T20:41:51.451Z,63.82
2022-07-29T20:56:57.170Z,70.11
2022-07-29T21:12:03.267Z,70.21
2022-07-29T21:27:26.393Z,75.79
2022-07-29T21:42:32.159Z,77.60
2022-07-29T21:57:37.755Z,80.12
2022-07-29T22:12:43.561Z,80.60
2022-07-29T22:27:49.081Z,82.77
2022-07-29T22:42:54.801Z,84.21
2022-07-29T22:58:00.354Z,85.96
2022-07-29T23:13:05.878Z,89.43
2022-07-29T23:28:13.081Z,90.58
2022-07-29T23:43:19.066Z,90.50
2022-07-29T23:58:24.422Z,92.30
